createdAt,value
2023-04-18T00:00:13.283Z,100452.50
2023-04-18T00:00:48.949Z,100448.44
2023-04-18T00:01:21.801Z,100449.25
2023-04-18T00:01:56.613Z,100454.63
2023-04-18T00:02:29.798Z,100451.94
2023-04-18T00:03:04.352Z,100450.88
2023-04-18T00:03:40.616Z,100446.31
2023-04-18T00:04:14.147Z,100456.28
2023-04-18T00:04:47.061Z,100453.56
2023-04-18T00:05:22.575Z,100451.69
2023-04-18T00:05:54.968Z,100454.13
2023-04-18T00:06:27.136Z,100451.69
2023-04-18T00:07:01.956Z,100451.41
2023-04-18T00:07:34.458Z,100443.63
2023-04-18T00:08:06.723Z,100449.00
2023-04-18T00:08:41.483Z,100447.13
2023-04-18T00:09:13.697Z,100446.31
2023-04-18T00:09:45.963Z,100444.69
2023-04-18T00:10:20.738Z,100440.94
2023-04-18T00:10:54.262Z,100451.69
2023-04-18T00:11:26.720Z,100449.81
2023-04-18T00:12:03.193Z,100446.31
2023-04-18T00:12:36.539Z,100450.88
2023-04-18T00:13:08.729Z,100440.34
2023-04-18T00:13:43.684Z,100448.19
2023-04-18T00:14:15.999Z,100448.44
2023-04-18T00:14:52.330Z,100454.38
2023-04-18T00:15:29.385Z,100451.94
2023-04-18T00:16:02.010Z,100452.19
2023-04-18T00:16:34.326Z,100448.72
2023-04-18T00:17:08.982Z,100441.41
2023-04-18T00:17:43.858Z,100444.13
2023-04-18T00:18:17.423Z,100446.03
2023-04-18T00:18:49.850Z,100446.81
2023-04-18T00:19:24.688Z,100440.63
2023-04-18T00:19:58.470Z,100452.19
2023-04-18T00:20:30.883Z,100446.03
2023-04-18T00:21:06.654Z,100451.41
2023-04-18T00:21:39.597Z,100443.56
2023-04-18T00:22:13.303Z,100451.41
2023-04-18T00:22:48.075Z,100441.41
2023-04-18T00:23:22.399Z,100439.81
2023-04-18T00:23:54.697Z,100445.22
2023-04-18T00:24:29.454Z,100441.69
2023-04-18T00:25:01.714Z,100439.81
2023-04-18T00:25:34.140Z,100448.97
2023-04-18T00:26:08.946Z,100442.75
2023-04-18T00:26:41.581Z,100443.81
2023-04-18T00:27:13.761Z,100452.72
2023-04-18T00:27:48.605Z,100444.63
2023-04-18T00:28:20.772Z,100449.50
2023-04-18T00:28:54.317Z,100454.88
2023-04-18T00:29:29.160Z,100434.38
2023-04-18T00:30:04.487Z,100444.88
2023-04-18T00:30:36.741Z,100437.91
2023-04-18T00:31:12.624Z,100449.72
2023-04-18T00:31:44.864Z,100441.66
2023-04-18T00:32:17.186Z,100449.97
2023-04-18T00:32:51.994Z,100445.41
2023-04-18T00:33:24.418Z,100438.41
2023-04-18T00:33:57.495Z,100443.78
2023-04-18T00:34:32.316Z,100444.06
2023-04-18T00:35:05.296Z,100447.81
2023-04-18T00:35:38.687Z,100446.19
2023-04-18T00:36:15.249Z,100452.63
2023-04-18T00:36:47.413Z,100453.72
2023-04-18T00:37:20.396Z,100451.03
2023-04-18T00:37:57.100Z,100441.31
2023-04-18T00:38:29.302Z,100451.28
2023-04-18T00:39:04.438Z,100441.56
2023-04-18T00:39:36.633Z,100444.50
2023-04-18T00:40:10.264Z,100451.78
2023-04-18T00:40:46.462Z,100445.84
2023-04-18T00:41:19.572Z,100449.59
2023-04-18T00:41:51.976Z,100449.88
2023-04-18T00:42:28.997Z,100447.69
2023-04-18T00:43:01.416Z,100448.72
2023-04-18T00:43:35.298Z,100451.41
2023-04-18T00:44:10.167Z,100447.09
2023-04-18T00:44:42.405Z,100444.41
2023-04-18T00:45:18.072Z,100445.47
2023-04-18T00:45:52.943Z,100443.00
2023-04-18T00:46:25.224Z,100445.41
2023-04-18T00:46:57.411Z,100445.41
2023-04-18T00:47:32.926Z,100446.75
2023-04-18T00:48:05.371Z,100445.94
2023-04-18T00:48:39.374Z,100446.44
2023-04-18T00:49:14.831Z,100445.63
2023-04-18T00:49:48.519Z,100445.88
2023-04-18T00:50:21.375Z,100445.88
2023-04-18T00:50:54.321Z,100451.81
2023-04-18T00:51:29.229Z,100440.25
2023-04-18T00:52:01.468Z,100442.13
2023-04-18T00:52:36.097Z,100439.97
2023-04-18T00:53:12.222Z,100439.16
2023-04-18T00:53:45.033Z,100442.66
2023-04-18T00:54:18.585Z,100444.28
2023-04-18T00:54:53.761Z,100445.34
2023-04-18T00:55:26.417Z,100437.56
2023-04-18T00:55:58.710Z,100443.75
2023-04-18T00:56:33.531Z,100443.75
2023-04-18T00:57:06.195Z,100439.16
2023-04-18T00:57:38.811Z,100441.84
2023-04-18T00:58:14.078Z,100439.16
2023-04-18T00:58:46.429Z,100440.25
2023-04-18T00:59:19.009Z,100437.56
2023-04-18T00:59:52.187Z,100439.44
2023-04-18T01:00:30.039Z,100437.56
2023-04-18T01:01:02.330Z,100442.59
2023-04-18T01:01:34.691Z,100436.16
2023-04-18T01:02:09.580Z,100438.88
2023-04-18T01:02:41.943Z,100439.91
2023-04-18T01:03:14.628Z,100437.22
2023-04-18T01:03:47.087Z,100443.44
2023-04-18T01:04:23.319Z,100439.91
2023-04-18T01:04:55.612Z,100439.13
2023-04-18T01:05:27.990Z,100443.44
2023-04-18T01:06:02.897Z,100443.44
2023-04-18T01:06:38.883Z,100441.81
2023-04-18T01:07:11.977Z,100439.38
2023-04-18T01:07:44.159Z,100439.91
2023-04-18T01:08:20.036Z,100436.16
2023-04-18T01:08:52.299Z,100441.00
2023-04-18T01:09:25.484Z,100436.44
2023-04-18T01:09:58.923Z,100441.81
2023-04-18T01:10:33.815Z,100443.69
2023-04-18T01:11:06.306Z,100439.38
2023-04-18T01:11:38.541Z,100438.56
2023-04-18T01:12:13.293Z,100438.56
2023-04-18T01:12:45.726Z,100450.16
2023-04-18T01:13:19.852Z,100439.38
2023-04-18T01:14:04.421Z,100443.13
2023-04-18T01:14:36.605Z,100439.09
2023-04-18T01:15:09.415Z,100444.19
2023-04-18T01:15:49.335Z,100437.75
2023-04-18T01:16:22.491Z,100435.06
2023-04-18T01:16:55.729Z,100436.94
2023-04-18T01:17:31.010Z,100439.38
2023-04-18T01:18:03.882Z,100441.25
2023-04-18T01:18:37.285Z,100432.94
2023-04-18T01:19:09.597Z,100438.31
2023-04-18T01:19:44.686Z,100445.31
2023-04-18T01:20:17.135Z,100439.91
2023-04-18T01:20:50.871Z,100433.75
2023-04-18T01:21:26.992Z,100438.03
2023-04-18T01:22:01.736Z,100438.03
2023-04-18T01:22:34.127Z,100438.03
2023-04-18T01:23:06.490Z,100441.31
2023-04-18T01:23:43.115Z,100435.91
2023-04-18T01:24:18.356Z,100432.13
2023-04-18T01:24:50.552Z,100439.69
2023-04-18T01:25:25.314Z,100440.25
2023-04-18T01:25:57.876Z,100443.19
2023-04-18T01:26:31.400Z,100435.91
2023-04-18T01:27:03.793Z,100431.34
2023-04-18T01:27:38.543Z,100439.44
2023-04-18T01:28:11.328Z,100434.03
2023-04-18T01:28:43.549Z,100434.03
2023-04-18T01:29:18.589Z,100439.44
2023-04-18T01:29:50.887Z,100439.44
2023-04-18T01:30:23.107Z,100435.91
2023-04-18T01:30:59.294Z,100431.34
2023-04-18T01:31:34.580Z,100433.22
2023-04-18T01:32:07.486Z,100428.09
2023-04-18T01:32:42.324Z,100438.88
2023-04-18T01:33:14.544Z,100429.16
2023-04-18T01:33:46.733Z,100432.66
2023-04-18T01:34:24.066Z,100441.81
2023-04-18T01:34:56.308Z,100440.19
2023-04-18T01:35:28.962Z,100437.75
2023-04-18T01:36:01.813Z,100433.19
2023-04-18T01:36:41.387Z,100437.75
2023-04-18T01:37:16.431Z,100436.59
2023-04-18T01:37:48.625Z,100432.25
2023-04-18T01:38:23.543Z,100435.53
2023-04-18T01:38:55.984Z,100438.78
2023-04-18T01:39:30.761Z,100432.59
2023-04-18T01:40:05.680Z,100433.41
2023-04-18T01:40:37.945Z,100429.09
2023-04-18T01:41:10.414Z,100433.41
2023-04-18T01:41:45.470Z,100439.56
2023-04-18T01:42:17.702Z,100433.88
2023-04-18T01:42:49.929Z,100437.97
2023-04-18T01:43:24.732Z,100436.09
2023-04-18T01:43:57.004Z,100438.22
2023-04-18T01:44:29.202Z,100436.59
2023-04-18T01:45:04.058Z,100435.53
2023-04-18T01:45:36.237Z,100433.59
2023-04-18T01:46:08.453Z,100436.84
2023-04-18T01:46:43.479Z,100444.13
2023-04-18T01:47:15.752Z,100439.78
2023-04-18T01:47:48.008Z,100436.28
2023-04-18T01:48:22.793Z,100433.59
2023-04-18T01:48:55.534Z,100443.03
2023-04-18T01:49:27.862Z,100436.53
2023-04-18T01:50:00.114Z,100429.53
2023-04-18T01:50:36.952Z,100432.25
2023-04-18T01:51:09.453Z,100429.78
2023-04-18T01:51:44.101Z,100433.53
2023-04-18T01:52:18.976Z,100437.28
2023-04-18T01:52:51.147Z,100430.31
2023-04-18T01:53:24.407Z,100429.50
2023-04-18T01:53:59.226Z,100435.94
2023-04-18T01:54:33.989Z,100435.13
2023-04-18T01:55:06.906Z,100427.28
2023-04-18T01:55:43.266Z,100437.22
2023-04-18T01:56:15.547Z,100431.06
2023-04-18T01:56:47.738Z,100431.84
2023-04-18T01:57:22.595Z,100429.97
2023-04-18T01:57:55.384Z,100434.00
2023-04-18T01:58:27.674Z,100432.66
2023-04-18T01:59:02.602Z,100425.69
2023-04-18T01:59:34.844Z,100423.47
2023-04-18T02:00:08.802Z,100426.97
2023-04-18T02:00:49.890Z,100428.63
2023-04-18T02:01:22.177Z,100422.94
2023-04-18T02:01:55.037Z,100424.00
2023-04-18T02:02:30.042Z,100424.81
2023-04-18T02:03:03.161Z,100415.94
2023-04-18T02:03:35.786Z,100422.94
2023-04-18T02:04:10.926Z,100425.63
2023-04-18T02:04:43.761Z,100420.50
2023-04-18T02:05:16.057Z,100425.88
2023-04-18T02:05:50.901Z,100425.88
2023-04-18T02:06:23.128Z,100429.63
2023-04-18T02:06:55.324Z,100424.25
2023-04-18T02:07:30.183Z,100423.44
2023-04-18T02:08:02.635Z,100419.13
2023-04-18T02:08:36.151Z,100428.81
2023-04-18T02:09:14.017Z,100418.31
2023-04-18T02:09:50.881Z,100420.19
2023-04-18T02:10:23.340Z,100432.00
2023-04-18T02:10:58.078Z,100418.56
2023-04-18T02:11:30.733Z,100412.63
2023-04-18T02:12:03.434Z,100420.19
2023-04-18T02:12:38.285Z,100416.94
2023-04-18T02:13:10.643Z,100415.31
2023-04-18T02:13:42.875Z,100423.41
2023-04-18T02:14:17.665Z,100425.81
2023-04-18T02:14:52.030Z,100415.31
2023-04-18T02:15:24.571Z,100415.56
2023-04-18T02:15:59.474Z,100420.94
2023-04-18T02:16:31.827Z,100423.88
2023-04-18T02:17:04.043Z,100419.31
2023-04-18T02:17:37.022Z,100419.56
2023-04-18T02:18:12.419Z,100422.00
2023-04-18T02:18:45.584Z,100418.50
2023-04-18T02:19:19.205Z,100415.81
2023-04-18T02:19:54.455Z,100416.63
2023-04-18T02:20:27.029Z,100418.50
2023-04-18T02:20:59.191Z,100420.13
2023-04-18T02:21:33.949Z,100420.13
2023-04-18T02:22:06.158Z,100423.06
2023-04-18T02:22:38.556Z,100420.13
2023-04-18T02:23:13.654Z,100421.19
2023-04-18T02:23:45.829Z,100417.69
2023-04-18T02:24:18.185Z,100421.19
2023-04-18T02:24:55.523Z,100415.81
2023-04-18T02:25:29.063Z,100417.97
2023-04-18T02:26:01.466Z,100417.38
2023-04-18T02:26:36.263Z,100422.53
2023-04-18T02:27:08.523Z,100416.31
2023-04-18T02:27:41.087Z,100419.00
2023-04-18T02:28:16.097Z,100416.56
2023-04-18T02:28:48.417Z,100414.69
2023-04-18T02:29:20.895Z,100423.56
2023-04-18T02:29:53.057Z,100420.06
2023-04-18T02:30:28.494Z,100418.44
2023-04-18T02:31:00.871Z,100416.84
2023-04-18T02:31:33.548Z,100417.09
2023-04-18T02:32:09.355Z,100414.63
2023-04-18T02:32:41.773Z,100422.69
2023-04-18T02:33:14.719Z,100420.00
2023-04-18T02:33:47.260Z,100416.50
2023-04-18T02:34:22.130Z,100421.88
2023-04-18T02:34:54.311Z,100422.16
2023-04-18T02:35:28.149Z,100425.66
2023-04-18T02:36:02.900Z,100423.47
2023-04-18T02:36:35.166Z,100425.66
2023-04-18T02:37:08.297Z,100420.53
2023-04-18T02:37:43.072Z,100417.59
2023-04-18T02:38:18.085Z,100418.91
2023-04-18T02:38:50.325Z,100417.03
2023-04-18T02:39:28.609Z,100418.91
2023-04-18T02:40:05.103Z,100418.91
2023-04-18T02:40:37.634Z,100422.63
2023-04-18T02:41:15.413Z,100418.34
2023-04-18T02:41:47.653Z,100419.16
2023-04-18T02:42:20.103Z,100419.16
2023-04-18T02:42:54.980Z,100421.03
2023-04-18T02:43:27.269Z,100414.84
2023-04-18T02:43:59.458Z,100417.53
2023-04-18T02:44:34.251Z,100421.84
2023-04-18T02:45:08.362Z,100420.22
2023-04-18T02:45:40.718Z,100422.09
2023-04-18T02:46:15.630Z,100419.41
2023-04-18T02:46:50.513Z,100423.16
2023-04-18T02:47:23.116Z,100416.97
2023-04-18T02:47:57.960Z,100419.66
2023-04-18T02:48:30.376Z,100417.78
2023-04-18T02:49:03.070Z,100414.28
2023-04-18T02:49:35.272Z,100418.84
2023-04-18T02:50:11.444Z,100424.22
2023-04-18T02:50:43.786Z,100416.66
2023-04-18T02:51:16.608Z,100414.78
2023-04-18T02:51:51.351Z,100417.47
2023-04-18T02:52:25.798Z,100410.69
2023-04-18T02:52:58.022Z,100420.66
2023-04-18T02:53:40.205Z,100408.53
2023-04-18T02:54:12.669Z,100415.78
2023-04-18T02:55:05.462Z,100408.22
2023-04-18T02:55:42.857Z,100414.63
2023-04-18T02:56:19.808Z,100409.03
2023-04-18T02:57:19.498Z,100411.63
2023-04-18T02:58:09.508Z,100407.31
2023-04-18T02:59:14.634Z,100410.19
2023-04-18T03:00:11.355Z,100412.06
2023-04-18T03:01:09.385Z,100414.19
2023-04-18T03:02:13.287Z,100413.63
2023-04-18T03:02:53.524Z,100408.00
2023-04-18T03:03:39.476Z,100417.69
2023-04-18T03:04:52.511Z,100414.13
2023-04-18T03:05:24.905Z,100407.69
2023-04-18T03:06:00.587Z,100408.00
2023-04-18T03:06:36.282Z,100406.69
2023-04-18T03:07:08.461Z,100413.69
2023-04-18T03:07:43.179Z,100416.13
2023-04-18T03:08:18.347Z,100407.81
2023-04-18T03:08:50.729Z,100414.25
2023-04-18T03:09:22.990Z,100412.94
2023-04-18T03:10:06.122Z,100411.06
2023-04-18T03:10:40.911Z,100420.19
2023-04-18T03:11:13.503Z,100421.25
2023-04-18T03:11:48.276Z,100418.06
2023-04-18T03:12:21.352Z,100414.56
2023-04-18T03:12:53.646Z,100413.50
2023-04-18T03:13:26.686Z,100415.13
2023-04-18T03:14:01.806Z,100414.06
2023-04-18T03:14:40.985Z,100418.63
2023-04-18T03:15:13.293Z,100415.94
2023-04-18T03:15:48.165Z,100408.44
2023-04-18T03:16:21.102Z,100408.44
2023-04-18T03:16:55.541Z,100415.47
2023-04-18T03:17:34.850Z,100413.81
2023-04-18T03:18:07.167Z,100408.44
2023-04-18T03:18:42.144Z,100405.75
2023-04-18T03:19:17.132Z,100411.94
2023-04-18T03:19:49.497Z,100409.84
2023-04-18T03:20:24.700Z,100417.09
2023-04-18T03:21:00.889Z,100409.84
2023-04-18T03:21:34.762Z,100421.66
2023-04-18T03:22:07.020Z,100416.03
2023-04-18T03:22:44.655Z,100415.22
2023-04-18T03:23:17.712Z,100417.91
2023-04-18T03:23:50.570Z,100416.84
2023-04-18T03:24:25.339Z,100419.28
2023-04-18T03:25:02.466Z,100419.28
2023-04-18T03:25:58.049Z,100410.09
2023-04-18T03:26:31.282Z,100413.34
2023-04-18T03:27:03.613Z,100415.78
2023-04-18T03:27:38.423Z,100412.84
2023-04-18T03:28:10.764Z,100412.03
2023-04-18T03:28:43.000Z,100417.16
2023-04-18T03:29:17.819Z,100415.28
2023-04-18T03:29:51.651Z,100414.22
2023-04-18T03:30:23.921Z,100419.59
2023-04-18T03:31:03.341Z,100421.22
2023-04-18T03:31:37.260Z,100415.03
2023-04-18T03:32:12.819Z,100420.16
2023-04-18T03:32:46.895Z,100416.66
2023-04-18T03:33:19.152Z,100426.34
2023-04-18T03:33:56.388Z,100420.97
2023-04-18T03:34:28.828Z,100424.22
2023-04-18T03:35:01.297Z,100423.16
2023-04-18T03:35:36.504Z,100427.72
2023-04-18T03:36:11.513Z,100430.41
2023-04-18T03:36:46.559Z,100429.59
2023-04-18T03:37:20.044Z,100432.28
2023-04-18T03:38:00.161Z,100420.69
2023-04-18T03:38:40.708Z,100426.09
2023-04-18T03:39:13.824Z,100423.38
2023-04-18T03:39:48.900Z,100422.91
2023-04-18T03:40:23.840Z,100427.72
2023-04-18T03:41:01.233Z,100421.28
2023-04-18T03:41:38.587Z,100432.28
2023-04-18T03:42:10.939Z,100427.47
2023-04-18T03:42:46.622Z,100422.09
2023-04-18T03:43:19.717Z,100426.41
2023-04-18T03:43:51.944Z,100428.00
2023-04-18T03:44:26.746Z,100426.97
2023-04-18T03:44:59.024Z,100425.91
2023-04-18T03:45:32.912Z,100431.03
2023-04-18T03:46:08.059Z,100429.16
2023-04-18T03:46:41.440Z,100427.25
2023-04-18T03:47:15.054Z,100427.25
2023-04-18T03:47:52.419Z,100433.47
2023-04-18T03:48:26.238Z,100422.69
2023-04-18T03:49:00.019Z,100418.13
2023-04-18T03:49:34.788Z,100427.84
2023-04-18T03:50:09.368Z,100424.34
2023-04-18T03:50:41.767Z,100426.78
2023-04-18T03:51:18.314Z,100416.25
2023-04-18T03:51:52.263Z,100423.28
2023-04-18T03:52:24.970Z,100432.97
2023-04-18T03:52:59.740Z,100425.38
2023-04-18T03:53:35.134Z,100432.97
2023-04-18T03:54:07.392Z,100427.31
2023-04-18T03:54:42.206Z,100433.53
2023-04-18T03:55:14.967Z,100434.56
2023-04-18T03:55:53.158Z,100429.19
2023-04-18T03:56:29.864Z,100432.41
2023-04-18T03:57:03.256Z,100432.97
2023-04-18T03:57:40.244Z,100432.69
2023-04-18T03:58:16.445Z,100432.97
2023-04-18T03:58:51.785Z,100427.59
2023-04-18T03:59:25.911Z,100431.88
2023-04-18T03:59:58.143Z,100437.84
2023-04-18T04:00:33.266Z,100427.91
2023-04-18T04:01:11.241Z,100430.84
2023-04-18T04:01:43.582Z,100427.91
2023-04-18T04:02:18.578Z,100427.91
2023-04-18T04:02:51.256Z,100430.59
2023-04-18T04:03:28.027Z,100430.59
2023-04-18T04:04:04.111Z,100433.28
2023-04-18T04:04:36.503Z,100427.09
2023-04-18T04:05:09.380Z,100432.47
2023-04-18T04:05:44.450Z,100427.63
2023-04-18T04:06:17.912Z,100426.84
2023-04-18T04:06:50.826Z,100425.75
2023-04-18T04:07:25.651Z,100432.75
2023-04-18T04:07:58.423Z,100421.19
2023-04-18T04:08:30.720Z,100424.69
2023-04-18T04:09:05.687Z,100433.59
2023-04-18T04:09:38.423Z,100428.72
2023-04-18T04:10:11.815Z,100431.41
2023-04-18T04:10:44.060Z,100427.63
2023-04-18T04:11:22.073Z,100431.13
2023-04-18T04:11:54.258Z,100421.69
2023-04-18T04:12:27.313Z,100429.25
2023-04-18T04:13:02.137Z,100427.63
2023-04-18T04:13:36.327Z,100425.75
2023-04-18T04:14:11.290Z,100430.31
2023-04-18T04:14:48.172Z,100426.25
2023-04-18T04:15:23.078Z,100433.00
2023-04-18T04:16:01.191Z,100427.91
2023-04-18T04:16:33.739Z,100437.59
2023-04-18T04:17:06.736Z,100423.06
2023-04-18T04:17:41.642Z,100428.19
2023-04-18T04:18:13.877Z,100426.56
2023-04-18T04:18:48.825Z,100430.88
2023-04-18T04:19:24.030Z,100432.53
2023-04-18T04:20:06.504Z,100427.38
2023-04-18T04:20:39.294Z,100436.03
2023-04-18T04:21:20.641Z,100431.47
2023-04-18T04:21:56.725Z,100422.59
2023-04-18T04:22:29.028Z,100422.31
2023-04-18T04:23:03.930Z,100429.06
2023-04-18T04:23:38.240Z,100435.28
2023-04-18T04:24:10.721Z,100423.44
2023-04-18T04:24:49.675Z,100424.00
2023-04-18T04:25:28.839Z,100420.50
2023-04-18T04:26:06.888Z,100419.44
2023-04-18T04:26:50.933Z,100430.19
2023-04-18T04:27:29.392Z,100419.44
2023-04-18T04:28:03.023Z,100426.16
2023-04-18T04:28:40.106Z,100423.47
2023-04-18T04:29:16.576Z,100431.84
2023-04-18T04:29:52.379Z,100426.47
2023-04-18T04:30:24.720Z,100431.59
2023-04-18T04:31:00.158Z,100423.28
2023-04-18T04:31:32.953Z,100424.94
2023-04-18T04:32:06.832Z,100426.53
2023-04-18T04:32:45.737Z,100433.28
2023-04-18T04:33:18.719Z,100421.47
2023-04-18T04:33:51.216Z,100431.16
2023-04-18T04:34:28.486Z,100422.53
2023-04-18T04:35:00.942Z,100421.72
2023-04-18T04:35:37.669Z,100423.34
2023-04-18T04:36:10.434Z,100420.66
2023-04-18T04:36:43.356Z,100427.41
2023-04-18T04:37:20.996Z,100422.00
2023-04-18T04:38:08.728Z,100427.91
2023-04-18T04:38:52.480Z,100428.72
2023-04-18T04:39:30.528Z,100428.47
2023-04-18T04:40:37.640Z,100427.09
2023-04-18T04:41:15.229Z,100429.53
2023-04-18T04:41:50.165Z,100430.66
2023-04-18T04:42:28.713Z,100426.09
2023-04-18T04:43:12.912Z,100422.59
2023-04-18T04:43:48.415Z,100425.00
2023-04-18T04:44:27.092Z,100422.06
2023-04-18T04:44:59.976Z,100424.25
2023-04-18T04:45:35.296Z,100426.44
2023-04-18T04:46:07.962Z,100425.34
2023-04-18T04:46:40.608Z,100425.94
2023-04-18T04:47:22.155Z,100431.06
2023-04-18T04:47:54.521Z,100425.41
2023-04-18T04:48:27.186Z,100429.47
2023-04-18T04:49:02.521Z,100428.38
2023-04-18T04:49:34.717Z,100427.34
2023-04-18T04:50:13.491Z,100428.72
2023-04-18T04:50:55.262Z,100428.44
2023-04-18T04:51:28.228Z,100431.94
2023-04-18T04:52:02.092Z,100433.34
2023-04-18T04:52:37.204Z,100435.75
2023-04-18T04:53:09.533Z,100429.88
2023-04-18T04:53:41.883Z,100433.91
2023-04-18T04:54:16.851Z,100432.63
2023-04-18T04:54:51.613Z,100433.41
2023-04-18T04:55:27.726Z,100437.47
2023-04-18T04:56:00.031Z,100434.78
2023-04-18T04:56:35.643Z,100431.03
2023-04-18T04:57:10.899Z,100434.50
2023-04-18T04:57:43.239Z,100435.31
2023-04-18T04:58:33.205Z,100429.94
2023-04-18T04:59:12.016Z,100431.56
2023-04-18T04:59:46.902Z,100435.66
2023-04-18T05:00:23.058Z,100438.06
2023-04-18T05:00:56.677Z,100437.00
2023-04-18T05:01:31.633Z,100434.06
2023-04-18T05:02:04.712Z,100441.84
2023-04-18T05:02:37.064Z,100435.16
2023-04-18T05:03:12.613Z,100440.28
2023-04-18T05:03:45.211Z,100444.59
2023-04-18T05:04:20.362Z,100442.47
2023-04-18T05:04:52.831Z,100442.19
2023-04-18T05:05:25.043Z,100448.16
2023-04-18T05:05:59.855Z,100443.56
2023-04-18T05:06:32.286Z,100448.72
2023-04-18T05:07:05.982Z,100450.31
2023-04-18T05:07:40.821Z,100445.75
2023-04-18T05:08:13.040Z,100443.88
2023-04-18T05:08:47.855Z,100446.31
2023-04-18T05:09:20.062Z,100440.94
2023-04-18T05:09:55.047Z,100443.34
2023-04-18T05:10:27.302Z,100449.28
2023-04-18T05:11:02.056Z,100449.03
2023-04-18T05:11:34.280Z,100449.84
2023-04-18T05:12:06.988Z,100440.69
2023-04-18T05:12:44.352Z,100450.16
2023-04-18T05:13:16.946Z,100439.38
2023-04-18T05:13:49.117Z,100444.47
2023-04-18T05:14:23.888Z,100446.13
2023-04-18T05:14:56.079Z,100448.56
2023-04-18T05:15:28.362Z,100448.28
2023-04-18T05:16:03.243Z,100447.22
2023-04-18T05:16:36.014Z,100439.94
2023-04-18T05:17:10.886Z,100452.09
2023-04-18T05:17:43.216Z,100444.81
2023-04-18T05:18:15.704Z,100451.81
2023-04-18T05:18:50.569Z,100448.63
2023-04-18T05:19:23.607Z,100453.22
2023-04-18T05:19:58.600Z,100454.56
2023-04-18T05:20:30.882Z,100457.00
2023-04-18T05:21:03.113Z,100447.81
2023-04-18T05:21:38.023Z,100453.56
2023-04-18T05:22:10.923Z,100454.38
2023-04-18T05:22:43.110Z,100450.34
2023-04-18T05:23:17.891Z,100450.91
2023-04-18T05:23:50.097Z,100455.19
2023-04-18T05:24:22.368Z,100446.88
2023-04-18T05:24:57.131Z,100452.81
2023-04-18T05:25:30.106Z,100447.72
2023-04-18T05:26:02.363Z,100455.50
2023-04-18T05:26:37.182Z,100448.81
2023-04-18T05:27:10.068Z,100454.47
2023-04-18T05:27:46.008Z,100447.75
2023-04-18T05:28:20.850Z,100452.34
2023-04-18T05:28:53.083Z,100453.44
2023-04-18T05:29:25.817Z,100448.88
2023-04-18T05:30:00.685Z,100451.56
2023-04-18T05:30:32.884Z,100445.88
2023-04-18T05:31:05.270Z,100454.53
2023-04-18T05:31:40.026Z,100445.38
2023-04-18T05:32:12.237Z,100450.50
2023-04-18T05:32:44.728Z,100455.38
2023-04-18T05:33:19.522Z,100455.91
2023-04-18T05:33:51.736Z,100451.34
2023-04-18T05:34:24.032Z,100455.38
2023-04-18T05:34:59.452Z,100447.84
2023-04-18T05:35:31.875Z,100447.84
2023-04-18T05:36:04.527Z,100454.06
2023-04-18T05:36:39.855Z,100449.50
2023-04-18T05:37:12.085Z,100443.53
2023-04-18T05:37:44.351Z,100458.66
2023-04-18T05:38:19.228Z,100446.78
2023-04-18T05:38:51.888Z,100451.09
2023-04-18T05:39:24.086Z,100450.84
2023-04-18T05:40:00.757Z,100450.59
2023-04-18T05:40:33.442Z,100451.13
2023-04-18T05:41:05.949Z,100450.03
2023-04-18T05:41:40.726Z,100438.19
2023-04-18T05:42:12.897Z,100461.13
2023-04-18T05:42:47.718Z,100449.00
2023-04-18T05:43:22.772Z,100445.22
2023-04-18T05:44:04.985Z,100439.56
2023-04-18T05:44:40.646Z,100447.66
2023-04-18T05:45:12.932Z,100435.00
2023-04-18T05:45:45.591Z,100447.41
2023-04-18T05:46:20.441Z,100436.06
2023-04-18T05:46:52.725Z,100443.63
2023-04-18T05:47:27.267Z,100442.53
2023-04-18T05:48:02.200Z,100442.53
2023-04-18T05:48:34.443Z,100436.88
2023-04-18T05:49:06.678Z,100442.84
2023-04-18T05:49:41.657Z,100445.25
2023-04-18T05:50:14.031Z,100443.09
2023-04-18T05:50:46.347Z,100440.13
2023-04-18T05:51:21.162Z,100446.09
2023-04-18T05:51:53.365Z,100444.19
2023-04-18T05:52:26.353Z,100441.25
2023-04-18T05:53:01.691Z,100444.47
2023-04-18T05:53:33.905Z,100443.94
2023-04-18T05:54:08.867Z,100439.91
2023-04-18T05:54:41.367Z,100443.13
2023-04-18T05:55:13.620Z,100442.88
2023-04-18T05:55:49.132Z,100444.50
2023-04-18T05:56:21.381Z,100440.75
2023-04-18T05:56:54.856Z,100445.03
2023-04-18T05:57:29.629Z,100446.94
2023-04-18T05:58:04.525Z,100451.81
2023-04-18T05:58:39.334Z,100444.25
2023-04-18T05:59:11.570Z,100443.97
2023-04-18T05:59:44.027Z,100448.84
2023-04-18T06:00:20.046Z,100448.59
2023-04-18T06:00:53.551Z,100444.00
2023-04-18T06:01:25.837Z,100440.22
2023-04-18T06:02:00.993Z,100448.03
2023-04-18T06:02:33.304Z,100447.22
2023-04-18T06:03:07.182Z,100437.53
2023-04-18T06:03:43.792Z,100437.25
2023-04-18T06:04:17.055Z,100438.06
2023-04-18T06:04:50.001Z,100440.50
2023-04-18T06:05:25.084Z,100447.53
2023-04-18T06:05:57.812Z,100439.41
2023-04-18T06:06:30.236Z,100445.63
2023-04-18T06:07:05.125Z,100437.25
2023-04-18T06:07:37.342Z,100438.63
2023-04-18T06:08:09.658Z,100446.16
2023-04-18T06:08:44.391Z,100445.63
2023-04-18T06:09:16.819Z,100442.66
2023-04-18T06:09:49.966Z,100433.50
2023-04-18T06:10:24.900Z,100434.56
2023-04-18T06:10:57.099Z,100438.06
2023-04-18T06:11:29.307Z,100439.97
2023-04-18T06:12:04.375Z,100441.84
2023-04-18T06:12:36.575Z,100444.56
2023-04-18T06:13:14.504Z,100439.97
2023-04-18T06:13:46.739Z,100441.59
2023-04-18T06:14:18.941Z,100432.69
2023-04-18T06:14:53.812Z,100435.13
2023-04-18T06:15:26.093Z,100444.03
2023-04-18T06:16:01.056Z,100442.13
2023-04-18T06:16:33.354Z,100437.53
2023-04-18T06:17:07.449Z,100442.69
2023-04-18T06:17:42.409Z,100444.31
2023-04-18T06:18:14.687Z,100439.44
2023-04-18T06:18:46.861Z,100443.50
2023-04-18T06:19:22.185Z,100441.31
2023-04-18T06:19:54.437Z,100437.00
2023-04-18T06:20:29.330Z,100444.03
2023-04-18T06:21:01.501Z,100441.31
2023-04-18T06:21:36.289Z,100443.78
2023-04-18T06:22:08.473Z,100446.22
2023-04-18T06:22:43.251Z,100438.38
2023-04-18T06:23:15.882Z,100444.31
2023-04-18T06:23:50.690Z,100440.00
2023-04-18T06:24:23.286Z,100440.00
2023-04-18T06:24:55.914Z,100438.94
2023-04-18T06:25:30.742Z,100435.97
2023-04-18T06:26:03.095Z,100441.91
2023-04-18T06:26:38.287Z,100446.22
2023-04-18T06:27:20.445Z,100440.81
2023-04-18T06:28:02.904Z,100444.34
2023-04-18T06:28:37.755Z,100447.31
2023-04-18T06:29:09.941Z,100444.88
2023-04-18T06:29:44.695Z,100444.34
2023-04-18T06:30:17.107Z,100440.56
2023-04-18T06:30:52.148Z,100445.16
2023-04-18T06:31:24.452Z,100444.88
2023-04-18T06:31:59.391Z,100450.03
2023-04-18T06:32:31.761Z,100437.59
2023-04-18T06:33:10.522Z,100446.50
2023-04-18T06:33:42.772Z,100445.94
2023-04-18T06:34:15.316Z,100442.19